sensor_id;sensor_type;location;lat;lon;timestamp;P1;durP1;ratioP1;P2;durP2;ratioP2
69325;SDS011;56471;53.508;49.252;2023-07-31T00:02:05;3.47;;;1.63;;
69325;SDS011;56471;53.508;49.252;2023-07-31T00:04:30;1.55;;;1.45;;
69325;SDS011;56471;53.508;49.252;2023-07-31T00:06:56;1.83;;;1.55;;
69325;SDS011;56471;53.508;49.252;2023-07-31T00:09:22;2.42;;;1.65;;
69325;SDS011;56471;53.508;49.252;2023-07-31T00:11:47;2.13;;;1.77;;
69325;SDS011;56471;53.508;49.252;2023-07-31T00:14:13;1.70;;;1.60;;
69325;SDS011;56471;53.508;49.252;2023-07-31T00:16:39;1.70;;;1.60;;
69325;SDS011;56471;53.508;49.252;2023-07-31T00:19:04;1.60;;;1.50;;
69325;SDS011;56471;53.508;49.252;2023-07-31T00:21:30;1.67;;;1.58;;
69325;SDS011;56471;53.508;49.252;2023-07-31T00:23:55;1.67;;;1.58;;
69325;SDS011;56471;53.508;49.252;2023-07-31T00:26:21;2.30;;;1.63;;
69325;SDS011;56471;53.508;49.252;2023-07-31T00:28:47;1.70;;;1.60;;
69325;SDS011;56471;53.508;49.252;2023-07-31T00:31:13;1.70;;;1.60;;
69325;SDS011;56471;53.508;49.252;2023-07-31T00:33:38;1.70;;;1.60;;
69325;SDS011;56471;53.508;49.252;2023-07-31T00:36:04;2.58;;;1.70;;
69325;SDS011;56471;53.508;49.252;2023-07-31T00:38:30;2.30;;;1.50;;
69325;SDS011;56471;53.508;49.252;2023-07-31T00:40:55;2.25;;;1.48;;
69325;SDS011;56471;53.508;49.252;2023-07-31T00:43:21;2.05;;;1.58;;
69325;SDS011;56471;53.508;49.252;2023-07-31T00:45:47;1.60;;;1.50;;
69325;SDS011;56471;53.508;49.252;2023-07-31T00:48:13;1.75;;;1.50;;
69325;SDS011;56471;53.508;49.252;2023-07-31T00:50:39;1.75;;;1.65;;
69325;SDS011;56471;53.508;49.252;2023-07-31T00:53:05;2.30;;;1.58;;
69325;SDS011;56471;53.508;49.252;2023-07-31T00:55:30;2.33;;;1.65;;
69325;SDS011;56471;53.508;49.252;2023-07-31T00:57:56;2.92;;;1.70;;
69325;SDS011;56471;53.508;49.252;2023-07-31T01:00:22;2.47;;;1.67;;
69325;SDS011;56471;53.508;49.252;2023-07-31T01:02:48;1.60;;;1.50;;
69325;SDS011;56471;53.508;49.252;2023-07-31T01:05:15;1.80;;;1.70;;
69325;SDS011;56471;53.508;49.252;2023-07-31T01:07:52;1.70;;;1.60;;
69325;SDS011;56471;53.508;49.252;2023-07-31T01:10:31;3.20;;;1.60;;
69325;SDS011;56471;53.508;49.252;2023-07-31T01:13:04;2.00;;;1.80;;
69325;SDS011;56471;53.508;49.252;2023-07-31T01:15:31;1.60;;;1.50;;
69325;SDS011;56471;53.508;49.252;2023-07-31T01:17:56;1.58;;;1.48;;
69325;SDS011;56471;53.508;49.252;2023-07-31T01:20:26;2.03;;;1.60;;
69325;SDS011;56471;53.508;49.252;2023-07-31T01:28:19;1.85;;;1.50;;
69325;SDS011;56471;53.508;49.252;2023-07-31T01:30:49;1.60;;;1.50;;
69325;SDS011;56471;53.508;49.252;2023-07-31T01:33:15;2.50;;;1.50;;
69325;SDS011;56471;53.508;49.252;2023-07-31T01:35:43;2.95;;;1.70;;
69325;SDS011;56471;53.508;49.252;2023-07-31T01:38:10;2.10;;;1.60;;
69325;SDS011;56471;53.508;49.252;2023-07-31T01:40:37;1.60;;;1.50;;
69325;SDS011;56471;53.508;49.252;2023-07-31T01:43:02;1.60;;;1.50;;
69325;SDS011;56471;53.508;49.252;2023-07-31T01:45:28;1.92;;;1.60;;
69325;SDS011;56471;53.508;49.252;2023-07-31T01:47:54;1.95;;;1.40;;
69325;SDS011;56471;53.508;49.252;2023-07-31T01:50:19;1.70;;;1.60;;
69325;SDS011;56471;53.508;49.252;2023-07-31T01:52:45;3.17;;;1.80;;
69325;SDS011;56471;53.508;49.252;2023-07-31T01:55:11;1.60;;;1.50;;
69325;SDS011;56471;53.508;49.252;2023-07-31T01:57:37;2.05;;;1.55;;
69325;SDS011;56471;53.508;49.252;2023-07-31T02:00:03;3.15;;;1.70;;
69325;SDS011;56471;53.508;49.252;2023-07-31T02:02:30;3.65;;;1.52;;
69325;SDS011;56471;53.508;49.252;2023-07-31T02:04:56;2.63;;;1.50;;
69325;SDS011;56471;53.508;49.252;2023-07-31T02:07:21;1.80;;;1.63;;
69325;SDS011;56471;53.508;49.252;2023-07-31T02:09:47;2.17;;;1.60;;
69325;SDS011;56471;53.508;49.252;2023-07-31T02:12:13;1.98;;;1.70;;
69325;SDS011;56471;53.508;49.252;2023-07-31T02:14:39;2.67;;;1.50;;
69325;SDS011;56471;53.508;49.252;2023-07-31T02:17:06;2.42;;;1.50;;
69325;SDS011;56471;53.508;49.252;2023-07-31T02:19:31;1.63;;;1.52;;
69325;SDS011;56471;53.508;49.252;2023-07-31T02:21:57;2.85;;;1.60;;
69325;SDS011;56471;53.508;49.252;2023-07-31T02:24:23;3.08;;;1.70;;
69325;SDS011;56471;53.508;49.252;2023-07-31T02:26:49;2.60;;;1.60;;
69325;SDS011;56471;53.508;49.252;2023-07-31T02:29:15;2.25;;;1.55;;
69325;SDS011;56471;53.508;49.252;2023-07-31T02:31:41;1.70;;;1.60;;
69325;SDS011;56471;53.508;49.252;2023-07-31T02:34:06;1.50;;;1.40;;
69325;SDS011;56471;53.508;49.252;2023-07-31T02:36:32;1.45;;;1.35;;
69325;SDS011;56471;53.508;49.252;2023-07-31T02:38:57;2.70;;;1.60;;
69325;SDS011;56471;53.508;49.252;2023-07-31T02:41:23;1.70;;;1.60;;
69325;SDS011;56471;53.508;49.252;2023-07-31T02:43:49;1.70;;;1.60;;
69325;SDS011;56471;53.508;49.252;2023-07-31T02:46:14;1.80;;;1.70;;
69325;SDS011;56471;53.508;49.252;2023-07-31T02:48:40;2.75;;;1.70;;
69325;SDS011;56471;53.508;49.252;2023-07-31T02:51:05;2.10;;;1.70;;
69325;SDS011;56471;53.508;49.252;2023-07-31T02:53:31;2.08;;;1.50;;
69325;SDS011;56471;53.508;49.252;2023-07-31T02:55:57;1.60;;;1.40;;
69325;SDS011;56471;53.508;49.252;2023-07-31T02:58:22;1.63;;;1.52;;
69325;SDS011;56471;53.508;49.252;2023-07-31T03:00:48;2.22;;;1.42;;
69325;SDS011;56471;53.508;49.252;2023-07-31T03:03:14;1.70;;;1.60;;
69325;SDS011;56471;53.508;49.252;2023-07-31T03:05:40;2.33;;;1.58;;
69325;SDS011;56471;53.508;49.252;2023-07-31T03:08:05;1.80;;;1.58;;
69325;SDS011;56471;53.508;49.252;2023-07-31T03:10:31;1.60;;;1.50;;
69325;SDS011;56471;53.508;49.252;2023-07-31T03:12:56;2.28;;;1.60;;
69325;SDS011;56471;53.508;49.252;2023-07-31T03:15:22;2.03;;;1.70;;
69325;SDS011;56471;53.508;49.252;2023-07-31T03:17:48;1.58;;;1.48;;
69325;SDS011;56471;53.508;49.252;2023-07-31T03:20:13;1.88;;;1.55;;
69325;SDS011;56471;53.508;49.252;2023-07-31T03:22:39;1.60;;;1.50;;
69325;SDS011;56471;53.508;49.252;2023-07-31T03:25:05;1.77;;;1.52;;
69325;SDS011;56471;53.508;49.252;2023-07-31T03:27:31;3.35;;;1.70;;
69325;SDS011;56471;53.508;49.252;2023-07-31T03:29:57;2.15;;;1.50;;
69325;SDS011;56471;53.508;49.252;2023-07-31T03:32:22;2.10;;;1.88;;
69325;SDS011;56471;53.508;49.252;2023-07-31T03:34:49;2.83;;;1.70;;
69325;SDS011;56471;53.508;49.252;2023-07-31T03:37:14;2.53;;;1.40;;
69325;SDS011;56471;53.508;49.252;2023-07-31T03:39:40;1.70;;;1.50;;
69325;SDS011;56471;53.508;49.252;2023-07-31T03:42:06;1.80;;;1.65;;
69325;SDS011;56471;53.508;49.252;2023-07-31T03:44:31;2.08;;;1.70;;
69325;SDS011;56471;53.508;49.252;2023-07-31T03:46:57;1.63;;;1.52;;
69325;SDS011;56471;53.508;49.252;2023-07-31T03:49:23;2.58;;;1.63;;
69325;SDS011;56471;53.508;49.252;2023-07-31T03:51:49;4.25;;;1.55;;
69325;SDS011;56471;53.508;49.252;2023-07-31T03:54:14;1.65;;;1.55;;
69325;SDS011;56471;53.508;49.252;2023-07-31T03:56:40;1.65;;;1.55;;
69325;SDS011;56471;53.508;49.252;2023-07-31T03:59:06;2.13;;;1.77;;
69325;SDS011;56471;53.508;49.252;2023-07-31T04:01:31;2.92;;;1.42;;
69325;SDS011;56471;53.508;49.252;2023-07-31T04:03:57;2.55;;;1.80;;
69325;SDS011;56471;53.508;49.252;2023-07-31T04:06:23;1.60;;;1.50;;
69325;SDS011;56471;53.508;49.252;2023-07-31T04:08:48;1.70;;;1.60;;
69325;SDS011;56471;53.508;49.252;2023-07-31T04:11:14;2.95;;;1.63;;
69325;SDS011;56471;53.508;49.252;2023-07-31T04:13:40;2.75;;;1.73;;
69325;SDS011;56471;53.508;49.252;2023-07-31T04:16:05;3.28;;;1.63;;
69325;SDS011;56471;53.508;49.252;2023-07-31T04:18:31;1.60;;;1.50;;
69325;SDS011;56471;53.508;49.252;2023-07-31T04:20:57;2.50;;;1.58;;
69325;SDS011;56471;53.508;49.252;2023-07-31T04:23:24;2.30;;;1.52;;
69325;SDS011;56471;53.508;49.252;2023-07-31T04:25:50;1.90;;;1.70;;
69325;SDS011;56471;53.508;49.252;2023-07-31T04:28:16;2.35;;;1.40;;
69325;SDS011;56471;53.508;49.252;2023-07-31T04:30:41;2.22;;;1.63;;
69325;SDS011;56471;53.508;49.252;2023-07-31T04:33:07;2.13;;;1.60;;
69325;SDS011;56471;53.508;49.252;2023-07-31T04:35:33;3.92;;;1.48;;
69325;SDS011;56471;53.508;49.252;2023-07-31T04:37:59;1.73;;;1.63;;
69325;SDS011;56471;53.508;49.252;2023-07-31T04:40:24;1.83;;;1.48;;
69325;SDS011;56471;53.508;49.252;2023-07-31T04:42:50;1.88;;;1.60;;
69325;SDS011;56471;53.508;49.252;2023-07-31T04:45:16;1.65;;;1.55;;
69325;SDS011;56471;53.508;49.252;2023-07-31T04:47:42;1.60;;;1.50;;
69325;SDS011;56471;53.508;49.252;2023-07-31T04:50:08;1.63;;;1.52;;
69325;SDS011;56471;53.508;49.252;2023-07-31T04:52:34;1.60;;;1.50;;
69325;SDS011;56471;53.508;49.252;2023-07-31T04:54:59;1.60;;;1.45;;
69325;SDS011;56471;53.508;49.252;2023-07-31T04:57:25;2.05;;;1.60;;
69325;SDS011;56471;53.508;49.252;2023-07-31T04:59:51;1.75;;;1.65;;
69325;SDS011;56471;53.508;49.252;2023-07-31T05:02:16;1.60;;;1.50;;
69325;SDS011;56471;53.508;49.252;2023-07-31T05:04:42;1.63;;;1.52;;
69325;SDS011;56471;53.508;49.252;2023-07-31T05:07:08;1.70;;;1.60;;
69325;SDS011;56471;53.508;49.252;2023-07-31T05:09:33;1.75;;;1.65;;
69325;SDS011;56471;53.508;49.252;2023-07-31T05:11:59;1.50;;;1.40;;
69325;SDS011;56471;53.508;49.252;2023-07-31T05:14:25;2.47;;;1.50;;
69325;SDS011;56471;53.508;49.252;2023-07-31T05:16:51;1.70;;;1.60;;
69325;SDS011;56471;53.508;49.252;2023-07-31T05:19:17;1.67;;;1.58;;
69325;SDS011;56471;53.508;49.252;2023-07-31T05:21:43;1.60;;;1.50;;
69325;SDS011;56471;53.508;49.252;2023-07-31T05:24:10;1.52;;;1.42;;
69325;SDS011;56471;53.508;49.252;2023-07-31T05:26:36;3.53;;;1.42;;
69325;SDS011;56471;53.508;49.252;2023-07-31T05:29:03;1.30;;;1.20;;
69325;SDS011;56471;53.508;49.252;2023-07-31T05:31:28;1.65;;;1.50;;
69325;SDS011;56471;53.508;49.252;2023-07-31T05:33:54;1.92;;;1.40;;
69325;SDS011;56471;53.508;49.252;2023-07-31T05:36:20;1.52;;;1.42;;
69325;SDS011;56471;53.508;49.252;2023-07-31T05:38:45;1.50;;;1.40;;
69325;SDS011;56471;53.508;49.252;2023-07-31T05:41:14;2.10;;;1.40;;
69325;SDS011;56471;53.508;49.252;2023-07-31T05:43:40;1.40;;;1.30;;
69325;SDS011;56471;53.508;49.252;2023-07-31T05:46:06;1.60;;;1.42;;
69325;SDS011;56471;53.508;49.252;2023-07-31T05:48:32;1.25;;;1.15;;
69325;SDS011;56471;53.508;49.252;2023-07-31T05:50:59;1.88;;;1.50;;
69325;SDS011;56471;53.508;49.252;2023-07-31T05:53:25;1.63;;;1.48;;
69325;SDS011;56471;53.508;49.252;2023-07-31T05:55:50;1.42;;;1.33;;
69325;SDS011;56471;53.508;49.252;2023-07-31T05:58:16;1.63;;;1.40;;
69325;SDS011;56471;53.508;49.252;2023-07-31T06:00:42;2.25;;;1.40;;
69325;SDS011;56471;53.508;49.252;2023-07-31T06:03:07;2.58;;;1.50;;
69325;SDS011;56471;53.508;49.252;2023-07-31T06:05:33;1.50;;;1.40;;
69325;SDS011;56471;53.508;49.252;2023-07-31T06:07:59;1.98;;;1.60;;
69325;SDS011;56471;53.508;49.252;2023-07-31T06:10:24;1.40;;;1.30;;
69325;SDS011;56471;53.508;49.252;2023-07-31T06:12:51;2.13;;;1.60;;
69325;SDS011;56471;53.508;49.252;2023-07-31T06:15:16;1.98;;;1.58;;
69325;SDS011;56471;53.508;49.252;2023-07-31T06:17:44;2.03;;;1.83;;
69325;SDS011;56471;53.508;49.252;2023-07-31T06:20:10;2.25;;;1.67;;
69325;SDS011;56471;53.508;49.252;2023-07-31T06:22:35;2.10;;;1.73;;
69325;SDS011;56471;53.508;49.252;2023-07-31T06:25:01;2.85;;;1.80;;
69325;SDS011;56471;53.508;49.252;2023-07-31T06:27:27;2.28;;;1.80;;
69325;SDS011;56471;53.508;49.252;2023-07-31T06:29:53;2.33;;;1.70;;
69325;SDS011;56471;53.508;49.252;2023-07-31T06:32:18;2.10;;;1.90;;
69325;SDS011;56471;53.508;49.252;2023-07-31T06:34:44;3.10;;;1.90;;
69325;SDS011;56471;53.508;49.252;2023-07-31T06:37:10;2.63;;;1.70;;
69325;SDS011;56471;53.508;49.252;2023-07-31T06:39:35;2.00;;;1.73;;
69325;SDS011;56471;53.508;49.252;2023-07-31T06:42:02;2.35;;;1.55;;
69325;SDS011;56471;53.508;49.252;2023-07-31T06:44:28;4.15;;;1.80;;
69325;SDS011;56471;53.508;49.252;2023-07-31T06:46:54;3.05;;;1.77;;
69325;SDS011;56471;53.508;49.252;2023-07-31T06:49:19;1.90;;;1.67;;
69325;SDS011;56471;53.508;49.252;2023-07-31T06:51:45;2.60;;;2.00;;
69325;SDS011;56471;53.508;49.252;2023-07-31T06:54:11;2.25;;;1.70;;
69325;SDS011;56471;53.508;49.252;2023-07-31T06:56:36;2.25;;;1.80;;
69325;SDS011;56471;53.508;49.252;2023-07-31T06:59:02;2.53;;;1.90;;
69325;SDS011;56471;53.508;49.252;2023-07-31T07:01:28;2.13;;;1.90;;
69325;SDS011;56471;53.508;49.252;2023-07-31T07:03:54;1.90;;;1.80;;
69325;SDS011;56471;53.508;49.252;2023-07-31T07:06:19;2.15;;;1.80;;
69325;SDS011;56471;53.508;49.252;2023-07-31T07:08:45;2.05;;;1.85;;
69325;SDS011;56471;53.508;49.252;2023-07-31T07:11:11;3.22;;;1.90;;
69325;SDS011;56471;53.508;49.252;2023-07-31T07:13:36;2.10;;;1.90;;
69325;SDS011;56471;53.508;49.252;2023-07-31T07:16:02;2.40;;;1.90;;
69325;SDS011;56471;53.508;49.252;2023-07-31T07:18:28;2.25;;;2.03;;
69325;SDS011;56471;53.508;49.252;2023-07-31T07:20:54;2.58;;;1.85;;
69325;SDS011;56471;53.508;49.252;2023-07-31T07:23:20;2.25;;;2.05;;
69325;SDS011;56471;53.508;49.252;2023-07-31T07:25:46;1.90;;;1.80;;
69325;SDS011;56471;53.508;49.252;2023-07-31T07:28:12;2.13;;;1.92;;
69325;SDS011;56471;53.508;49.252;2023-07-31T07:30:38;2.05;;;1.88;;
69325;SDS011;56471;53.508;49.252;2023-07-31T07:33:04;3.90;;;1.92;;
69325;SDS011;56471;53.508;49.252;2023-07-31T07:35:30;2.30;;;2.00;;
69325;SDS011;56471;53.508;49.252;2023-07-31T07:37:58;4.00;;;1.95;;
69325;SDS011;56471;53.508;49.252;2023-07-31T07:40:24;2.28;;;1.80;;
69325;SDS011;56471;53.508;49.252;2023-07-31T07:42:49;2.42;;;1.90;;
69325;SDS011;56471;53.508;49.252;2023-07-31T07:45:15;228.95;;;146.80;;
69325;SDS011;56471;53.508;49.252;2023-07-31T07:47:41;188.50;;;123.28;;
69325;SDS011;56471;53.508;49.252;2023-07-31T07:50:07;133.82;;;86.15;;
69325;SDS011;56471;53.508;49.252;2023-07-31T07:52:33;99.47;;;59.75;;
69325;SDS011;56471;53.508;49.252;2023-07-31T07:54:59;75.78;;;43.13;;
69325;SDS011;56471;53.508;49.252;2023-07-31T07:57:25;48.25;;;28.90;;
69325;SDS011;56471;53.508;49.252;2023-07-31T07:59:51;32.10;;;19.85;;
69325;SDS011;56471;53.508;49.252;2023-07-31T08:02:17;19.52;;;12.93;;
69325;SDS011;56471;53.508;49.252;2023-07-31T08:04:42;14.80;;;8.77;;
69325;SDS011;56471;53.508;49.252;2023-07-31T08:07:10;9.98;;;6.93;;
69325;SDS011;56471;53.508;49.252;2023-07-31T08:09:37;5.65;;;4.57;;
69325;SDS011;56471;53.508;49.252;2023-07-31T08:12:03;5.65;;;3.80;;
69325;SDS011;56471;53.508;49.252;2023-07-31T08:14:29;6.30;;;3.30;;
69325;SDS011;56471;53.508;49.252;2023-07-31T08:16:55;3.35;;;3.03;;
69325;SDS011;56471;53.508;49.252;2023-07-31T08:19:21;3.90;;;3.00;;
69325;SDS011;56471;53.508;49.252;2023-07-31T08:21:47;4.40;;;2.60;;
69325;SDS011;56471;53.508;49.252;2023-07-31T08:24:12;2.72;;;2.50;;
69325;SDS011;56471;53.508;49.252;2023-07-31T08:26:38;2.72;;;2.30;;
69325;SDS011;56471;53.508;49.252;2023-07-31T08:29:04;4.43;;;2.40;;
69325;SDS011;56471;53.508;49.252;2023-07-31T08:31:29;3.75;;;2.75;;
69325;SDS011;56471;53.508;49.252;2023-07-31T08:33:55;8.15;;;2.80;;
69325;SDS011;56471;53.508;49.252;2023-07-31T08:36:21;3.50;;;2.78;;
69325;SDS011;56471;53.508;49.252;2023-07-31T08:38:47;2.80;;;2.60;;
69325;SDS011;56471;53.508;49.252;2023-07-31T08:41:13;2.78;;;2.53;;
69325;SDS011;56471;53.508;49.252;2023-07-31T08:43:39;3.42;;;2.80;;
69325;SDS011;56471;53.508;49.252;2023-07-31T08:46:05;4.07;;;2.55;;
69325;SDS011;56471;53.508;49.252;2023-07-31T08:48:31;4.40;;;2.90;;
69325;SDS011;56471;53.508;49.252;2023-07-31T08:51:00;4.15;;;3.08;;
69325;SDS011;56471;53.508;49.252;2023-07-31T08:53:26;3.20;;;2.90;;
69325;SDS011;56471;53.508;49.252;2023-07-31T08:55:52;3.60;;;3.08;;
69325;SDS011;56471;53.508;49.252;2023-07-31T08:58:19;4.25;;;3.08;;
69325;SDS011;56471;53.508;49.252;2023-07-31T09:00:46;6.03;;;3.22;;
69325;SDS011;56471;53.508;49.252;2023-07-31T09:03:16;4.97;;;2.85;;
69325;SDS011;56471;53.508;49.252;2023-07-31T09:05:43;4.57;;;2.85;;
69325;SDS011;56471;53.508;49.252;2023-07-31T09:08:12;2.88;;;2.65;;
69325;SDS011;56471;53.508;49.252;2023-07-31T09:10:42;4.38;;;2.90;;
69325;SDS011;56471;53.508;49.252;2023-07-31T09:13:08;6.05;;;3.10;;
69325;SDS011;56471;53.508;49.252;2023-07-31T09:15:35;4.00;;;3.00;;
69325;SDS011;56471;53.508;49.252;2023-07-31T09:18:02;7.05;;;3.00;;
69325;SDS011;56471;53.508;49.252;2023-07-31T09:20:29;5.35;;;3.20;;
69325;SDS011;56471;53.508;49.252;2023-07-31T09:22:54;4.03;;;2.90;;
69325;SDS011;56471;53.508;49.252;2023-07-31T09:30:23;450.13;;;319.02;;
69325;SDS011;56471;53.508;49.252;2023-07-31T09:32:50;351.30;;;244.52;;
69325;SDS011;56471;53.508;49.252;2023-07-31T09:37:58;121.97;;;73.85;;
69325;SDS011;56471;53.508;49.252;2023-07-31T09:43:02;45.95;;;24.58;;
69325;SDS011;56471;53.508;49.252;2023-07-31T09:45:29;26.23;;;14.95;;
69325;SDS011;56471;53.508;49.252;2023-07-31T09:47:56;21.05;;;11.18;;
69325;SDS011;56471;53.508;49.252;2023-07-31T09:50:22;13.15;;;8.32;;
69325;SDS011;56471;53.508;49.252;2023-07-31T09:52:50;8.65;;;6.30;;
69325;SDS011;56471;53.508;49.252;2023-07-31T09:55:17;8.25;;;5.55;;
69325;SDS011;56471;53.508;49.252;2023-07-31T09:57:46;6.70;;;4.63;;
69325;SDS011;56471;53.508;49.252;2023-07-31T10:00:14;7.70;;;4.50;;
69325;SDS011;56471;53.508;49.252;2023-07-31T10:02:41;5.25;;;3.50;;
69325;SDS011;56471;53.508;49.252;2023-07-31T10:05:15;5.50;;;3.50;;
69325;SDS011;56471;53.508;49.252;2023-07-31T10:08:04;6.85;;;3.20;;
69325;SDS011;56471;53.508;49.252;2023-07-31T10:10:31;3.22;;;2.78;;
69325;SDS011;56471;53.508;49.252;2023-07-31T10:12:57;3.67;;;2.78;;
69325;SDS011;56471;53.508;49.252;2023-07-31T10:15:25;4.85;;;2.88;;
69325;SDS011;56471;53.508;49.252;2023-07-31T10:17:51;4.22;;;2.72;;
69325;SDS011;56471;53.508;49.252;2023-07-31T10:20:19;5.03;;;2.55;;
69325;SDS011;56471;53.508;49.252;2023-07-31T10:22:46;3.97;;;2.40;;
69325;SDS011;56471;53.508;49.252;2023-07-31T10:25:12;3.75;;;2.42;;
69325;SDS011;56471;53.508;49.252;2023-07-31T10:27:40;4.10;;;2.45;;
69325;SDS011;56471;53.508;49.252;2023-07-31T10:30:11;6.43;;;2.60;;
69325;SDS011;56471;53.508;49.252;2023-07-31T10:32:40;5.90;;;2.88;;
69325;SDS011;56471;53.508;49.252;2023-07-31T10:35:07;7.93;;;2.70;;
69325;SDS011;56471;53.508;49.252;2023-07-31T10:37:37;7.93;;;2.30;;
69325;SDS011;56471;53.508;49.252;2023-07-31T10:40:05;6.72;;;2.40;;
69325;SDS011;56471;53.508;49.252;2023-07-31T10:45:08;81.50;;;42.90;;
69325;SDS011;56471;53.508;49.252;2023-07-31T10:47:37;124.95;;;77.65;;
69325;SDS011;56471;53.508;49.252;2023-07-31T10:50:11;113.95;;;70.20;;
69325;SDS011;56471;53.508;49.252;2023-07-31T10:52:38;90.47;;;52.88;;
69325;SDS011;56471;53.508;49.252;2023-07-31T10:55:23;73.72;;;41.67;;
69325;SDS011;56471;53.508;49.252;2023-07-31T10:57:49;52.45;;;29.02;;
69325;SDS011;56471;53.508;49.252;2023-07-31T11:00:21;45.67;;;24.35;;
69325;SDS011;56471;53.508;49.252;2023-07-31T11:08:11;20.10;;;12.63;;
69325;SDS011;56471;53.508;49.252;2023-07-31T11:10:42;17.83;;;10.50;;
69325;SDS011;56471;53.508;49.252;2023-07-31T11:13:08;14.25;;;9.15;;
69325;SDS011;56471;53.508;49.252;2023-07-31T11:15:34;12.40;;;7.40;;
69325;SDS011;56471;53.508;49.252;2023-07-31T11:18:00;8.57;;;5.85;;
69325;SDS011;56471;53.508;49.252;2023-07-31T11:20:31;10.13;;;5.22;;
69325;SDS011;56471;53.508;49.252;2023-07-31T11:22:58;8.48;;;4.50;;
69325;SDS011;56471;53.508;49.252;2023-07-31T11:25:25;5.80;;;3.53;;
69325;SDS011;56471;53.508;49.252;2023-07-31T11:27:51;8.88;;;3.30;;
69325;SDS011;56471;53.508;49.252;2023-07-31T11:30:19;7.43;;;3.72;;
69325;SDS011;56471;53.508;49.252;2023-07-31T11:32:45;4.88;;;2.92;;
69325;SDS011;56471;53.508;49.252;2023-07-31T11:35:14;7.57;;;2.83;;
69325;SDS011;56471;53.508;49.252;2023-07-31T11:37:42;4.82;;;2.72;;
69325;SDS011;56471;53.508;49.252;2023-07-31T11:40:09;4.18;;;2.70;;
69325;SDS011;56471;53.508;49.252;2023-07-31T11:42:36;4.03;;;2.70;;
69325;SDS011;56471;53.508;49.252;2023-07-31T11:45:05;3.40;;;2.40;;
69325;SDS011;56471;53.508;49.252;2023-07-31T11:47:32;5.03;;;2.40;;
69325;SDS011;56471;53.508;49.252;2023-07-31T11:50:05;4.18;;;2.70;;
69325;SDS011;56471;53.508;49.252;2023-07-31T11:52:40;4.68;;;2.80;;
69325;SDS011;56471;53.508;49.252;2023-07-31T11:55:09;3.40;;;2.40;;
69325;SDS011;56471;53.508;49.252;2023-07-31T11:57:36;5.00;;;2.63;;
69325;SDS011;56471;53.508;49.252;2023-07-31T12:00:07;984.50;;;630.05;;
69325;SDS011;56471;53.508;49.252;2023-07-31T12:02:36;260.73;;;161.32;;
69325;SDS011;56471;53.508;49.252;2023-07-31T12:05:04;101.80;;;57.30;;
69325;SDS011;56471;53.508;49.252;2023-07-31T12:07:44;35.63;;;19.35;;
69325;SDS011;56471;53.508;49.252;2023-07-31T12:10:11;18.48;;;9.68;;
69325;SDS011;56471;53.508;49.252;2023-07-31T12:12:55;14.20;;;6.97;;
69325;SDS011;56471;53.508;49.252;2023-07-31T12:15:37;408.13;;;313.52;;
69325;SDS011;56471;53.508;49.252;2023-07-31T12:18:15;108.75;;;64.43;;
69325;SDS011;56471;53.508;49.252;2023-07-31T12:20:45;29.10;;;17.05;;
69325;SDS011;56471;53.508;49.252;2023-07-31T12:23:21;12.65;;;6.30;;
69325;SDS011;56471;53.508;49.252;2023-07-31T12:26:09;7.38;;;4.13;;
69325;SDS011;56471;53.508;49.252;2023-07-31T12:28:37;5.97;;;3.80;;
69325;SDS011;56471;53.508;49.252;2023-07-31T12:31:06;7.82;;;4.40;;
69325;SDS011;56471;53.508;49.252;2023-07-31T12:33:34;13.93;;;4.45;;
69325;SDS011;56471;53.508;49.252;2023-07-31T12:36:02;11.23;;;5.18;;
69325;SDS011;56471;53.508;49.252;2023-07-31T12:38:29;11.48;;;4.90;;
69325;SDS011;56471;53.508;49.252;2023-07-31T12:40:55;11.05;;;4.32;;
69325;SDS011;56471;53.508;49.252;2023-07-31T12:43:20;9.45;;;4.68;;
69325;SDS011;56471;53.508;49.252;2023-07-31T12:45:46;8.65;;;3.90;;
69325;SDS011;56471;53.508;49.252;2023-07-31T12:48:12;9.80;;;4.00;;
69325;SDS011;56471;53.508;49.252;2023-07-31T12:50:38;8.55;;;4.03;;
69325;SDS011;56471;53.508;49.252;2023-07-31T12:53:04;6.78;;;3.78;;
69325;SDS011;56471;53.508;49.252;2023-07-31T12:55:30;93.97;;;50.90;;
69325;SDS011;56471;53.508;49.252;2023-07-31T12:57:57;178.77;;;111.57;;
69325;SDS011;56471;53.508;49.252;2023-07-31T13:00:23;88.75;;;51.97;;
69325;SDS011;56471;53.508;49.252;2023-07-31T13:02:49;86.15;;;51.00;;
69325;SDS011;56471;53.508;49.252;2023-07-31T13:05:14;44.67;;;24.88;;
69325;SDS011;56471;53.508;49.252;2023-07-31T13:07:40;26.30;;;15.63;;
69325;SDS011;56471;53.508;49.252;2023-07-31T13:10:06;22.00;;;11.70;;
69325;SDS011;56471;53.508;49.252;2023-07-31T13:12:33;13.73;;;7.75;;
69325;SDS011;56471;53.508;49.252;2023-07-31T13:14:59;7.82;;;4.80;;
69325;SDS011;56471;53.508;49.252;2023-07-31T13:17:25;11.48;;;4.50;;
69325;SDS011;56471;53.508;49.252;2023-07-31T13:19:51;8.75;;;3.80;;
69325;SDS011;56471;53.508;49.252;2023-07-31T13:22:17;6.10;;;3.40;;
69325;SDS011;56471;53.508;49.252;2023-07-31T13:24:43;4.93;;;3.35;;
69325;SDS011;56471;53.508;49.252;2023-07-31T13:27:08;4.70;;;3.30;;
69325;SDS011;56471;53.508;49.252;2023-07-31T13:29:34;8.35;;;3.40;;
69325;SDS011;56471;53.508;49.252;2023-07-31T13:32:00;6.57;;;2.95;;
69325;SDS011;56471;53.508;49.252;2023-07-31T13:34:25;5.85;;;3.70;;
69325;SDS011;56471;53.508;49.252;2023-07-31T13:36:51;6.60;;;4.00;;
69325;SDS011;56471;53.508;49.252;2023-07-31T13:39:17;8.07;;;3.38;;
69325;SDS011;56471;53.508;49.252;2023-07-31T13:41:42;644.22;;;509.75;;
69325;SDS011;56471;53.508;49.252;2023-07-31T13:44:08;924.25;;;715.05;;
69325;SDS011;56471;53.508;49.252;2023-07-31T13:46:34;676.45;;;564.70;;
69325;SDS011;56471;53.508;49.252;2023-07-31T13:48:59;258.63;;;179.15;;
69325;SDS011;56471;53.508;49.252;2023-07-31T13:51:26;151.30;;;99.32;;
69325;SDS011;56471;53.508;49.252;2023-07-31T13:53:53;109.50;;;66.03;;
69325;SDS011;56471;53.508;49.252;2023-07-31T13:56:18;56.70;;;32.22;;
69325;SDS011;56471;53.508;49.252;2023-07-31T13:58:44;25.17;;;14.77;;
69325;SDS011;56471;53.508;49.252;2023-07-31T14:01:10;25.48;;;13.63;;
69325;SDS011;56471;53.508;49.252;2023-07-31T14:03:35;16.30;;;8.07;;
69325;SDS011;56471;53.508;49.252;2023-07-31T14:06:01;16.20;;;6.90;;
69325;SDS011;56471;53.508;49.252;2023-07-31T14:08:27;9.95;;;4.72;;
69325;SDS011;56471;53.508;49.252;2023-07-31T14:10:54;8.93;;;4.53;;
69325;SDS011;56471;53.508;49.252;2023-07-31T14:13:20;7.20;;;3.90;;
69325;SDS011;56471;53.508;49.252;2023-07-31T14:15:46;9.15;;;4.00;;
69325;SDS011;56471;53.508;49.252;2023-07-31T14:18:12;4.63;;;3.60;;
69325;SDS011;56471;53.508;49.252;2023-07-31T14:20:37;8.93;;;3.63;;
69325;SDS011;56471;53.508;49.252;2023-07-31T14:23:03;6.85;;;3.70;;
69325;SDS011;56471;53.508;49.252;2023-07-31T14:25:29;10.50;;;3.63;;
69325;SDS011;56471;53.508;49.252;2023-07-31T14:27:54;6.03;;;3.33;;
69325;SDS011;56471;53.508;49.252;2023-07-31T14:30:20;6.53;;;3.50;;
69325;SDS011;56471;53.508;49.252;2023-07-31T14:32:46;5.78;;;3.03;;
69325;SDS011;56471;53.508;49.252;2023-07-31T14:35:12;6.47;;;3.00;;
69325;SDS011;56471;53.508;49.252;2023-07-31T14:37:41;5.20;;;3.28;;
69325;SDS011;56471;53.508;49.252;2023-07-31T14:40:08;4.63;;;3.20;;
69325;SDS011;56471;53.508;49.252;2023-07-31T14:42:36;7.90;;;3.28;;
69325;SDS011;56471;53.508;49.252;2023-07-31T14:45:02;6.07;;;3.08;;
69325;SDS011;56471;53.508;49.252;2023-07-31T14:47:28;7.53;;;3.30;;
69325;SDS011;56471;53.508;49.252;2023-07-31T14:49:56;5.72;;;3.15;;